Time;durP1;ratioP1;P1;durP2;ratioP2;P2;SDS_P1;SDS_P2;PMS_P1;PMS_P2;Temp;Humidity;BMP_temperature;BMP_pressure;BME280_temperature;BME280_humidity;BME280_pressure;Samples;Min_cycle;Max_cycle;Signal;HPM_P1;HPM_P2
2021/04/17 00:00:06;;;;;;;;;;;0.50;99.90;;;;;;5070621;28;19913;-73
2021/04/17 00:02:31;;;;;;;;;;;0.50;99.90;;;;;;5070859;28;20231;-73
2021/04/17 00:04:57;;;;;;;;;;;0.50;99.90;;;;;;5069312;28;19914;-73
2021/04/17 00:07:22;;;;;;;;;;;0.50;99.90;;;;;;5070210;28;19912;-74
2021/04/17 00:09:48;;;;;;;;;;;0.40;99.90;;;;;;5074115;28;19908;-73
2021/04/17 00:12:17;;;;;;;;;;;0.40;99.90;;;;;;5074421;28;20431;-73
2021/04/17 00:14:43;;;;;;;;;;;0.40;99.90;;;;;;5074311;28;19909;-73
2021/04/17 00:17:09;;;;;;;;;;;0.40;99.90;;;;;;5073155;28;19912;-73
2021/04/17 00:19:35;;;;;;;;;;;0.40;99.90;;;;;;5073993;28;20445;-74
2021/04/17 00:22:00;;;;;;;;;;;0.30;99.90;;;;;;5074032;28;19916;-73
2021/04/17 00:24:26;;;;;;;;;;;0.30;99.90;;;;;;5072722;28;19904;-73
2021/04/17 00:26:52;;;;;;;;;;;0.30;99.90;;;;;;5073269;28;19916;-73
2021/04/17 00:29:17;;;;;;;;;;;0.20;99.90;;;;;;5073889;28;19916;-73
2021/04/17 00:31:43;;;;;;;;;;;0.20;99.90;;;;;;5073932;28;19913;-73
2021/04/17 00:34:08;;;;;;;;;;;0.10;99.90;;;;;;5073029;28;20270;-73
2021/04/17 00:36:34;;;;;;;;;;;0.10;99.90;;;;;;5068244;28;20394;-73
2021/04/17 00:39:00;;;;;;;;;;;0.10;99.90;;;;;;5072461;28;19916;-73
2021/04/17 00:41:25;;;;;;;;;;;0.10;99.90;;;;;;5070579;28;19916;-73
2021/04/17 00:43:51;;;;;;;;;;;0.10;99.90;;;;;;5071001;28;20398;-73
2021/04/17 00:46:17;;;;;;;;;;;0.10;99.90;;;;;;5071291;28;19908;-72
2021/04/17 00:48:43;;;;;;;;;;;0.10;99.90;;;;;;5072346;28;19915;-73
2021/04/17 00:51:09;;;;;;;;;;;0.00;99.90;;;;;;5071238;28;20393;-73
2021/04/17 00:53:34;;;;;;;;;;;0.00;99.90;;;;;;5072235;28;19954;-73
2021/04/17 00:56:03;;;;;;;;;;;0.00;99.90;;;;;;5072043;28;19912;-73
2021/04/17 00:58:28;;;;;;;;;;;0.00;99.90;;;;;;5073405;28;20358;-73
2021/04/17 01:00:54;;;;;;;;;;;0.00;99.90;;;;;;5073535;28;20011;-73
2021/04/17 01:03:27;;;;;;;;;;;0.00;99.90;;;;;;5072143;28;19915;-73
2021/04/17 01:05:57;;;;;;;;;;;0.00;99.90;;;;;;5071999;28;19927;-73
2021/04/17 01:08:27;;;;;;;;;;;0.00;99.90;;;;;;5073308;28;20404;-73
2021/04/17 01:10:54;;;;;;;;;;;-0.10;99.90;;;;;;5073181;28;19914;-73
2021/04/17 01:13:20;;;;;;;;;;;-0.10;99.90;;;;;;5073075;28;19912;-73
2021/04/17 01:15:46;;;;;;;;;;;-0.10;99.90;;;;;;5071989;28;19912;-73
2021/04/17 01:18:14;;;;;;;;;;;-0.10;99.90;;;;;;5072524;28;19913;-73
2021/04/17 01:20:44;;;;;;;;;;;-0.10;99.90;;;;;;5073213;28;20003;-73
2021/04/17 01:23:17;;;;;;;;;;;-0.10;99.90;;;;;;5073143;28;19908;-73
2021/04/17 01:25:51;;;;;;;;;;;-0.10;99.90;;;;;;5071833;28;19909;-73
2021/04/17 01:28:17;;;;;;;;;;;0.00;99.90;;;;;;5072733;28;19915;-73
2021/04/17 01:30:43;;;;;;;;;;;0.00;99.90;;;;;;5072862;28;19909;-73
2021/04/17 01:33:09;;;;;;;;;;;0.10;99.90;;;;;;5068141;28;19912;-73
2021/04/17 01:35:35;;;;;;;;;;;0.00;99.90;;;;;;5070980;28;19924;-74
2021/04/17 01:38:11;;;;;;;;;;;0.10;99.90;;;;;;5072366;28;19986;-73
2021/04/17 01:40:37;;;;;;;;;;;0.10;99.90;;;;;;5072598;28;19915;-73
2021/04/17 01:43:02;;;;;;;;;;;0.10;99.90;;;;;;5072575;28;19909;-73
2021/04/17 01:45:29;;;;;;;;;;;0.10;99.90;;;;;;5072656;28;19908;-73
2021/04/17 01:47:56;;;;;;;;;;;0.10;99.90;;;;;;5071454;28;19908;-73
2021/04/17 01:50:23;;;;;;;;;;;0.10;99.90;;;;;;5072632;28;19916;-73
2021/04/17 01:52:50;;;;;;;;;;;0.10;99.90;;;;;;5072922;28;19908;-73
2021/04/17 01:55:16;;;;;;;;;;;0.10;99.90;;;;;;5073555;28;20362;-73
2021/04/17 01:57:42;;;;;;;;;;;0.10;99.90;;;;;;5072530;28;19919;-73
2021/04/17 02:00:08;;;;;;;;;;;0.10;99.90;;;;;;5072522;28;19908;-73
2021/04/17 02:02:34;;;;;;;;;;;0.10;99.90;;;;;;5072089;28;19913;-73
2021/04/17 02:04:59;;;;;;;;;;;0.20;99.90;;;;;;5071681;28;19908;-73
2021/04/17 02:07:25;;;;;;;;;;;0.10;99.90;;;;;;5072468;28;19954;-74
2021/04/17 02:09:50;;;;;;;;;;;0.10;99.90;;;;;;5072544;28;19928;-73
2021/04/17 02:12:16;;;;;;;;;;;0.10;99.90;;;;;;5072094;28;19909;-73
2021/04/17 02:14:41;;;;;;;;;;;0.10;99.90;;;;;;5072175;28;19977;-73
2021/04/17 02:17:12;;;;;;;;;;;0.00;99.90;;;;;;5071244;28;19918;-74
2021/04/17 02:19:42;;;;;;;;;;;0.00;99.90;;;;;;5072304;28;20384;-73
2021/04/17 02:22:10;;;;;;;;;;;0.00;99.90;;;;;;5072226;28;20281;-73
2021/04/17 02:24:36;;;;;;;;;;;0.00;99.90;;;;;;5071793;28;19930;-73
2021/04/17 02:27:01;;;;;;;;;;;0.00;99.90;;;;;;5071056;28;19995;-73
2021/04/17 02:29:27;;;;;;;;;;;0.00;99.90;;;;;;5071697;28;20056;-73
2021/04/17 02:31:52;;;;;;;;;;;0.00;99.90;;;;;;5071720;28;19955;-73
2021/04/17 02:34:19;;;;;;;;;;;0.10;99.90;;;;;;5070973;28;20001;-73
2021/04/17 02:36:44;;;;;;;;;;;0.10;99.90;;;;;;5070517;28;20264;-73
2021/04/17 02:39:10;;;;;;;;;;;0.10;99.90;;;;;;5071481;28;19912;-73
2021/04/17 02:41:35;;;;;;;;;;;0.20;99.90;;;;;;5071747;28;19908;-74
2021/04/17 02:44:01;;;;;;;;;;;0.20;99.90;;;;;;5071788;28;19913;-73
2021/04/17 02:46:26;;;;;;;;;;;0.20;99.90;;;;;;5070933;28;20345;-73
2021/04/17 02:48:52;;;;;;;;;;;0.20;99.90;;;;;;5071608;28;19915;-73
2021/04/17 02:51:18;;;;;;;;;;;0.20;99.90;;;;;;5071839;28;20328;-74
2021/04/17 02:53:44;;;;;;;;;;;0.20;99.90;;;;;;5071562;28;19952;-73
2021/04/17 02:56:09;;;;;;;;;;;0.20;99.90;;;;;;5070050;28;19959;-73
2021/04/17 02:58:34;;;;;;;;;;;0.20;99.90;;;;;;5071644;28;19909;-73
2021/04/17 03:01:00;;;;;;;;;;;0.20;99.90;;;;;;5071451;28;20353;-73
2021/04/17 03:03:25;;;;;;;;;;;0.20;99.90;;;;;;5070164;28;19962;-72
2021/04/17 03:05:51;;;;;;;;;;;0.20;99.90;;;;;;5070184;28;19913;-73
2021/04/17 03:08:17;;;;;;;;;;;0.30;99.90;;;;;;5071217;28;20366;-73
2021/04/17 03:10:43;;;;;;;;;;;0.30;99.90;;;;;;5070870;28;19916;-73
2021/04/17 03:13:08;;;;;;;;;;;0.30;99.90;;;;;;5071049;28;19909;-73
2021/04/17 03:15:34;;;;;;;;;;;0.30;99.90;;;;;;5070773;28;19908;-73
2021/04/17 03:18:00;;;;;;;;;;;0.30;99.90;;;;;;5070758;28;19909;-73
2021/04/17 03:20:25;;;;;;;;;;;0.40;99.90;;;;;;5071196;28;19908;-73
2021/04/17 03:22:51;;;;;;;;;;;0.30;99.90;;;;;;5071237;28;20336;-73
2021/04/17 03:25:16;;;;;;;;;;;0.30;99.90;;;;;;5070707;28;20550;-73
2021/04/17 03:27:43;;;;;;;;;;;0.30;99.90;;;;;;5070116;28;19999;-73
2021/04/17 03:30:10;;;;;;;;;;;0.30;99.90;;;;;;5071438;28;20350;-72
2021/04/17 03:32:36;;;;;;;;;;;0.30;99.90;;;;;;5069683;28;19909;-73
2021/04/17 03:35:02;;;;;;;;;;;0.30;99.90;;;;;;5070150;28;19916;-73
2021/04/17 03:37:27;;;;;;;;;;;0.20;99.90;;;;;;5069709;28;19969;-73
2021/04/17 03:39:53;;;;;;;;;;;0.20;99.90;;;;;;5070846;28;19916;-73
2021/04/17 03:42:18;;;;;;;;;;;0.30;99.90;;;;;;5073691;28;19909;-72
2021/04/17 03:44:44;;;;;;;;;;;0.30;99.90;;;;;;5075524;28;20003;-73
2021/04/17 03:47:09;;;;;;;;;;;0.30;99.90;;;;;;5074214;28;19909;-73
2021/04/17 03:49:35;;;;;;;;;;;0.40;99.90;;;;;;5074814;28;19908;-73
2021/04/17 03:52:00;;;;;;;;;;;0.40;99.90;;;;;;5075060;28;19940;-73
2021/04/17 03:54:26;;;;;;;;;;;0.40;99.90;;;;;;5073244;28;19909;-73
2021/04/17 03:56:51;;;;;;;;;;;0.40;99.90;;;;;;5074037;28;19920;-73
2021/04/17 03:59:17;;;;;;;;;;;0.40;99.90;;;;;;5074771;28;20022;-73
2021/04/17 04:01:42;;;;;;;;;;;0.40;99.90;;;;;;5074989;28;20038;-73
2021/04/17 04:04:08;;;;;;;;;;;0.30;99.90;;;;;;5073656;28;19932;-73
2021/04/17 04:06:33;;;;;;;;;;;0.30;99.90;;;;;;5073547;28;20010;-73
2021/04/17 04:08:59;;;;;;;;;;;0.20;99.90;;;;;;5074518;28;20418;-73
2021/04/17 04:11:25;;;;;;;;;;;0.10;99.90;;;;;;5074377;28;19908;-73
2021/04/17 04:13:50;;;;;;;;;;;0.10;99.90;;;;;;5074561;28;19995;-73
2021/04/17 04:16:16;;;;;;;;;;;0.10;99.90;;;;;;5073369;28;19919;-73
2021/04/17 04:18:41;;;;;;;;;;;0.10;99.90;;;;;;5074411;28;19915;-73
2021/04/17 04:21:07;;;;;;;;;;;0.00;99.90;;;;;;5074541;28;20011;-72
2021/04/17 04:23:32;;;;;;;;;;;0.00;99.90;;;;;;5073939;28;19916;-73
2021/04/17 04:25:58;;;;;;;;;;;0.00;99.90;;;;;;5071275;28;19966;-73
2021/04/17 04:28:23;;;;;;;;;;;0.00;99.90;;;;;;5074321;28;19995;-73
2021/04/17 04:30:49;;;;;;;;;;;-0.10;99.90;;;;;;5074372;28;19940;-73
2021/04/17 04:33:15;;;;;;;;;;;-0.10;99.90;;;;;;5073195;28;19915;-73
2021/04/17 04:35:40;;;;;;;;;;;-0.10;99.90;;;;;;5072541;28;19962;-73
2021/04/17 04:38:06;;;;;;;;;;;-0.10;99.90;;;;;;5073882;28;19912;-73
2021/04/17 04:40:31;;;;;;;;;;;-0.10;99.90;;;;;;5073872;28;19908;-73
2021/04/17 04:42:57;;;;;;;;;;;-0.10;99.90;;;;;;5074007;28;19953;-73
2021/04/17 04:45:22;;;;;;;;;;;-0.20;99.90;;;;;;5074019;28;19908;-73
2021/04/17 04:47:48;;;;;;;;;;;-0.20;99.90;;;;;;5072238;28;19920;-73
2021/04/17 04:50:13;;;;;;;;;;;-0.30;99.90;;;;;;5074008;28;19912;-73
2021/04/17 04:52:39;;;;;;;;;;;-0.30;99.90;;;;;;5073483;28;19963;-73
2021/04/17 04:55:05;;;;;;;;;;;-0.40;99.90;;;;;;5073506;28;19908;-74
2021/04/17 04:57:30;;;;;;;;;;;-0.30;99.90;;;;;;5072724;28;20417;-73
2021/04/17 04:59:56;;;;;;;;;;;-0.30;99.90;;;;;;5073603;28;19909;-73
2021/04/17 05:02:21;;;;;;;;;;;-0.30;99.90;;;;;;5073792;28;19908;-73
2021/04/17 05:04:47;;;;;;;;;;;-0.30;99.90;;;;;;5072428;28;19909;-73
2021/04/17 05:07:13;;;;;;;;;;;-0.20;99.90;;;;;;5072091;28;19909;-73
2021/04/17 05:09:38;;;;;;;;;;;-0.10;99.90;;;;;;5073164;28;19909;-72
2021/04/17 05:12:04;;;;;;;;;;;-0.10;99.90;;;;;;5073428;28;20292;-72
2021/04/17 05:14:29;;;;;;;;;;;0.00;99.90;;;;;;5073545;28;19916;-72
2021/04/17 05:16:55;;;;;;;;;;;0.00;99.90;;;;;;5072297;28;19912;-74
2021/04/17 05:19:20;;;;;;;;;;;0.10;99.90;;;;;;5073414;28;19908;-72
2021/04/17 05:21:46;;;;;;;;;;;0.10;99.90;;;;;;5073369;28;19956;-73
2021/04/17 05:24:11;;;;;;;;;;;0.20;99.90;;;;;;5073207;28;19919;-73
2021/04/17 05:26:37;;;;;;;;;;;0.30;99.90;;;;;;5072077;28;19915;-72
2021/04/17 05:29:03;;;;;;;;;;;0.40;99.90;;;;;;5073336;28;20189;-72
2021/04/17 05:31:29;;;;;;;;;;;0.60;99.90;;;;;;5073224;28;20353;-72
2021/04/17 05:33:55;;;;;;;;;;;0.70;99.90;;;;;;5072344;28;19916;-72
2021/04/17 05:36:21;;;;;;;;;;;0.80;99.90;;;;;;5069629;28;20373;-73
2021/04/17 05:38:46;;;;;;;;;;;0.90;99.90;;;;;;5068158;28;20375;-73
2021/04/17 05:41:12;;;;;;;;;;;0.90;99.90;;;;;;5058387;28;19997;-72
2021/04/17 05:43:38;;;;;;;;;;;1.00;99.90;;;;;;5051648;28;19908;-73
2021/04/17 05:46:03;;;;;;;;;;;1.20;99.90;;;;;;5051117;28;19913;-73
2021/04/17 05:48:29;;;;;;;;;;;1.20;99.90;;;;;;5052029;28;20293;-73
2021/04/17 05:50:54;;;;;;;;;;;1.40;99.90;;;;;;5052483;28;19908;-72
2021/04/17 05:53:20;;;;;;;;;;;1.40;99.90;;;;;;5052650;28;19920;-74
2021/04/17 05:55:45;;;;;;;;;;;1.50;99.90;;;;;;5051344;28;19909;-72
2021/04/17 05:58:11;;;;;;;;;;;1.60;99.90;;;;;;5052438;28;20282;-72
2021/04/17 06:00:36;;;;;;;;;;;1.60;99.90;;;;;;5052560;28;19915;-73
2021/04/17 06:03:03;;;;;;;;;;;1.60;99.90;;;;;;5052518;28;19909;-72
2021/04/17 06:05:29;;;;;;;;;;;1.70;99.90;;;;;;5051267;28;19909;-72
2021/04/17 06:07:54;;;;;;;;;;;1.80;99.90;;;;;;5051391;28;20347;-73
2021/04/17 06:10:20;;;;;;;;;;;1.90;99.90;;;;;;5056892;28;19909;-72
2021/04/17 06:12:46;;;;;;;;;;;1.90;99.90;;;;;;5053887;28;20019;-72
2021/04/17 06:15:12;;;;;;;;;;;2.00;99.90;;;;;;5069019;28;19962;-73
2021/04/17 06:17:37;;;;;;;;;;;2.10;99.90;;;;;;5069913;28;19919;-73
2021/04/17 06:20:03;;;;;;;;;;;2.10;99.90;;;;;;5071304;28;19969;-73
2021/04/17 06:22:28;;;;;;;;;;;2.20;99.90;;;;;;5071013;28;19927;-73
2021/04/17 06:24:54;;;;;;;;;;;2.40;99.90;;;;;;5070988;28;20310;-73
2021/04/17 06:27:19;;;;;;;;;;;2.50;99.90;;;;;;5070533;28;19916;-73
2021/04/17 06:29:45;;;;;;;;;;;2.70;99.90;;;;;;5071072;28;19908;-73
2021/04/17 06:32:10;;;;;;;;;;;2.80;99.90;;;;;;5070986;28;19999;-72
2021/04/17 06:34:36;;;;;;;;;;;3.00;99.90;;;;;;5070814;28;20114;-73
2021/04/17 06:37:01;;;;;;;;;;;3.20;99.90;;;;;;5069581;28;19916;-72
2021/04/17 06:39:27;;;;;;;;;;;3.30;99.90;;;;;;5063677;28;19967;-73
2021/04/17 06:41:53;;;;;;;;;;;3.40;99.90;;;;;;5051794;28;19915;-73
2021/04/17 06:44:20;;;;;;;;;;;3.60;99.90;;;;;;5050905;28;20424;-73
2021/04/17 06:46:46;;;;;;;;;;;3.70;99.90;;;;;;5049599;28;19960;-73
2021/04/17 06:49:12;;;;;;;;;;;3.90;99.90;;;;;;5050621;28;20341;-73
2021/04/17 06:51:41;;;;;;;;;;;4.00;99.90;;;;;;5051006;28;20435;-73
2021/04/17 06:54:07;;;;;;;;;;;4.10;99.90;;;;;;5063939;28;19913;-73
2021/04/17 06:56:33;;;;;;;;;;;4.20;99.90;;;;;;5069234;28;20298;-73
2021/04/17 06:58:59;;;;;;;;;;;4.40;99.90;;;;;;5069220;28;19913;-73
2021/04/17 07:01:24;;;;;;;;;;;4.60;99.90;;;;;;5068313;28;20398;-72
2021/04/17 07:03:50;;;;;;;;;;;4.70;99.90;;;;;;5049590;28;19962;-73
2021/04/17 07:06:15;;;;;;;;;;;4.90;99.90;;;;;;5050637;28;20025;-73
2021/04/17 07:08:41;;;;;;;;;;;5.10;99.90;;;;;;5051648;28;20320;-73
2021/04/17 07:11:07;;;;;;;;;;;5.20;99.90;;;;;;5057351;28;19918;-73
2021/04/17 07:13:34;;;;;;;;;;;5.20;99.90;;;;;;5058526;28;20351;-73
2021/04/17 07:16:09;;;;;;;;;;;5.30;99.90;;;;;;5049470;28;20290;-72
2021/04/17 07:18:36;;;;;;;;;;;5.40;99.90;;;;;;5050626;28;20007;-73
2021/04/17 07:21:26;;;;;;;;;;;5.50;99.90;;;;;;5051067;28;19916;-73
2021/04/17 07:23:51;;;;;;;;;;;5.90;99.90;;;;;;5052942;28;19909;-73
2021/04/17 07:26:21;;;;;;;;;;;6.60;99.90;;;;;;5049942;28;20408;-74
2021/04/17 07:29:00;;;;;;;;;;;7.40;99.90;;;;;;5050919;28;19912;-74
2021/04/17 07:31:27;;;;;;;;;;;8.30;99.90;;;;;;5051074;28;20389;-73
2021/04/17 07:33:53;;;;;;;;;;;8.90;99.90;;;;;;5050819;28;19909;-74
2021/04/17 07:36:18;;;;;;;;;;;9.20;99.90;;;;;;5049854;28;19917;-73
2021/04/17 07:38:46;;;;;;;;;;;9.60;99.90;;;;;;5050245;28;20073;-74
2021/04/17 07:41:13;;;;;;;;;;;9.70;99.90;;;;;;5066428;28;20377;-73
2021/04/17 07:43:45;;;;;;;;;;;9.60;99.90;;;;;;5070824;28;20138;-73
2021/04/17 07:46:11;;;;;;;;;;;9.80;99.90;;;;;;5069749;28;19909;-73
2021/04/17 07:48:36;;;;;;;;;;;10.10;99.90;;;;;;5069710;28;19965;-74
2021/04/17 07:51:04;;;;;;;;;;;10.40;99.00;;;;;;5071067;28;19908;-74
2021/04/17 07:53:37;;;;;;;;;;;10.50;97.40;;;;;;5070941;28;19908;-74
2021/04/17 07:56:21;;;;;;;;;;;10.30;97.20;;;;;;5069413;28;20389;-74
2021/04/17 07:58:47;;;;;;;;;;;10.50;97.70;;;;;;5070885;28;19908;-73
2021/04/17 08:01:14;;;;;;;;;;;10.70;97.00;;;;;;5070733;28;19908;-74
2021/04/17 08:03:40;;;;;;;;;;;10.80;96.30;;;;;;5070424;28;20434;-74
2021/04/17 08:06:06;;;;;;;;;;;10.90;96.70;;;;;;5069672;28;19909;-73
2021/04/17 08:08:31;;;;;;;;;;;11.00;95.10;;;;;;5070492;28;19912;-74
2021/04/17 08:10:57;;;;;;;;;;;11.30;96.40;;;;;;5064171;28;20266;-74
2021/04/17 08:13:23;;;;;;;;;;;11.60;95.40;;;;;;5070381;28;19913;-73
2021/04/17 08:15:48;;;;;;;;;;;11.80;94.30;;;;;;5069326;28;20358;-74
2021/04/17 08:18:14;;;;;;;;;;;12.00;93.60;;;;;;5070599;28;19908;-74
2021/04/17 08:20:39;;;;;;;;;;;12.20;93.60;;;;;;5070565;28;19961;-73
2021/04/17 08:23:05;;;;;;;;;;;12.80;94.00;;;;;;5070379;28;19909;-74
2021/04/17 08:25:32;;;;;;;;;;;13.00;91.70;;;;;;5069978;28;20288;-74
2021/04/17 08:27:58;;;;;;;;;;;12.90;91.50;;;;;;5070276;28;19908;-74
2021/04/17 08:30:27;;;;;;;;;;;12.80;91.90;;;;;;5074302;28;19936;-74
2021/04/17 08:32:53;;;;;;;;;;;13.10;91.80;;;;;;5074024;28;19908;-74
2021/04/17 08:35:20;;;;;;;;;;;13.00;90.40;;;;;;5073952;28;19923;-74
2021/04/17 08:37:54;;;;;;;;;;;12.90;88.30;;;;;;5072610;28;20163;-74
2021/04/17 08:40:32;;;;;;;;;;;12.70;89.10;;;;;;5067150;28;19908;-74
2021/04/17 08:42:58;;;;;;;;;;;12.40;88.90;;;;;;5073750;28;20470;-74
2021/04/17 08:45:23;;;;;;;;;;;12.60;90.50;;;;;;5073865;28;20299;-74
2021/04/17 08:47:51;;;;;;;;;;;12.90;89.70;;;;;;5072878;28;20000;-74
2021/04/17 08:50:25;;;;;;;;;;;12.80;85.60;;;;;;5074218;28;19908;-74
2021/04/17 08:53:01;;;;;;;;;;;12.80;85.80;;;;;;5073851;28;19908;-74
2021/04/17 08:55:29;;;;;;;;;;;12.70;84.10;;;;;;5073330;28;19908;-74
2021/04/17 08:58:12;;;;;;;;;;;12.90;84.90;;;;;;5072316;28;19916;-74
2021/04/17 09:00:43;;;;;;;;;;;12.70;80.60;;;;;;5073631;28;19908;-74
2021/04/17 09:03:08;;;;;;;;;;;12.80;85.20;;;;;;5073528;28;20009;-74
2021/04/17 09:05:45;;;;;;;;;;;12.90;85.40;;;;;;5073332;28;20401;-75
2021/04/17 09:08:13;;;;;;;;;;;12.90;80.30;;;;;;5073413;28;19912;-74
2021/04/17 09:10:38;;;;;;;;;;;12.90;78.50;;;;;;5067189;28;19931;-74
2021/04/17 09:13:10;;;;;;;;;;;12.60;78.80;;;;;;5073072;28;20280;-74
2021/04/17 09:15:51;;;;;;;;;;;12.10;78.90;;;;;;5072843;28;19908;-74
2021/04/17 09:18:32;;;;;;;;;;;11.80;80.30;;;;;;5073096;28;20365;-74
2021/04/17 09:21:18;;;;;;;;;;;11.40;81.20;;;;;;5073294;28;19909;-74
2021/04/17 09:23:46;;;;;;;;;;;11.30;81.70;;;;;;5072964;28;20300;-74
2021/04/17 09:26:30;;;;;;;;;;;11.40;83.90;;;;;;5071921;28;19916;-74
2021/04/17 09:28:59;;;;;;;;;;;11.40;82.50;;;;;;5073089;28;19932;-74
2021/04/17 09:31:25;;;;;;;;;;;11.40;80.30;;;;;;5073074;28;20266;-74
2021/04/17 09:34:01;;;;;;;;;;;11.50;83.10;;;;;;5072819;28;19913;-75
2021/04/17 09:36:26;;;;;;;;;;;11.50;83.60;;;;;;5071988;28;19916;-74
2021/04/17 09:38:52;;;;;;;;;;;12.00;84.10;;;;;;5070179;28;19996;-74
2021/04/17 09:41:17;;;;;;;;;;;12.70;81.80;;;;;;5069554;28;19908;-75
2021/04/17 09:43:43;;;;;;;;;;;13.20;82.40;;;;;;5072753;28;19909;-74
2021/04/17 09:46:16;;;;;;;;;;;13.80;81.80;;;;;;5071505;28;19908;-74
2021/04/17 09:48:43;;;;;;;;;;;14.60;81.80;;;;;;5072166;28;20276;-74
2021/04/17 09:51:22;;;;;;;;;;;15.30;75.70;;;;;;5072828;28;19912;-74
2021/04/17 09:53:48;;;;;;;;;;;15.40;74.20;;;;;;5072598;28;19909;-75
2021/04/17 09:56:24;;;;;;;;;;;15.40;74.10;;;;;;5070880;28;20296;-74
2021/04/17 09:58:50;;;;;;;;;;;14.80;72.00;;;;;;5072470;28;19908;-75
2021/04/17 10:01:16;;;;;;;;;;;14.00;74.40;;;;;;5072384;28;20003;-74
2021/04/17 10:03:50;;;;;;;;;;;13.40;73.70;;;;;;5072514;28;19916;-74
2021/04/17 10:06:22;;;;;;;;;;;12.70;75.50;;;;;;5071222;28;19916;-75
2021/04/17 10:08:47;;;;;;;;;;;11.80;75.70;;;;;;5070088;28;19954;-74
2021/04/17 10:11:20;;;;;;;;;;;11.10;78.60;;;;;;5067689;28;19913;-74
2021/04/17 10:13:46;;;;;;;;;;;10.60;79.00;;;;;;5070910;28;19962;-75
2021/04/17 10:16:12;;;;;;;;;;;10.20;81.10;;;;;;5070918;28;19913;-73
2021/04/17 10:18:40;;;;;;;;;;;10.00;82.50;;;;;;5072201;28;19913;-75
2021/04/17 10:21:06;;;;;;;;;;;9.90;82.70;;;;;;5072230;28;19970;-74
2021/04/17 10:23:32;;;;;;;;;;;9.90;84.70;;;;;;5072236;28;19953;-74
2021/04/17 10:26:08;;;;;;;;;;;9.90;83.10;;;;;;5070716;28;19908;-74
2021/04/17 10:28:34;;;;;;;;;;;10.20;83.40;;;;;;5072063;28;19966;-73
2021/04/17 10:31:00;;;;;;;;;;;10.60;81.30;;;;;;5072015;28;19954;-73
2021/04/17 10:33:27;;;;;;;;;;;10.70;78.70;;;;;;5071454;28;19908;-73
2021/04/17 10:35:53;;;;;;;;;;;10.70;80.30;;;;;;5070734;28;19927;-73
2021/04/17 10:38:25;;;;;;;;;;;10.90;80.80;;;;;;5071819;28;19909;-73
2021/04/17 10:40:51;;;;;;;;;;;11.10;81.50;;;;;;5065562;28;19909;-75
2021/04/17 10:43:17;;;;;;;;;;;11.20;79.10;;;;;;5088333;28;20278;-73
2021/04/17 10:45:43;;;;;;;;;;;11.30;79.70;;;;;;5090922;28;19908;-73
2021/04/17 10:48:10;;;;;;;;;;;11.40;79.60;;;;;;5090621;28;20010;-74
2021/04/17 10:50:56;;;;;;;;;;;11.40;78.90;;;;;;5091532;28;19948;-73
2021/04/17 10:53:26;;;;;;;;;;;11.20;78.00;;;;;;5091033;28;19947;-73
2021/04/17 10:55:54;;;;;;;;;;;11.00;78.60;;;;;;5090356;28;19954;-73
2021/04/17 10:58:20;;;;;;;;;;;11.00;79.30;;;;;;5091705;28;19912;-73
2021/04/17 11:00:47;;;;;;;;;;;10.90;76.70;;;;;;5091672;28;20003;-73
2021/04/17 11:03:12;;;;;;;;;;;10.80;76.60;;;;;;5091650;28;19908;-73
2021/04/17 11:05:38;;;;;;;;;;;10.60;76.10;;;;;;5090950;28;20262;-73
2021/04/17 11:08:05;;;;;;;;;;;10.60;76.80;;;;;;5091270;28;19920;-73
2021/04/17 11:10:32;;;;;;;;;;;10.60;77.40;;;;;;5069087;28;19912;-73
2021/04/17 11:12:58;;;;;;;;;;;10.80;77.10;;;;;;5084990;28;19941;-74
2021/04/17 11:15:27;;;;;;;;;;;10.80;77.30;;;;;;5091287;28;19908;-75
2021/04/17 11:18:08;;;;;;;;;;;11.00;77.40;;;;;;5090175;28;19912;-73
2021/04/17 11:20:42;;;;;;;;;;;11.10;77.50;;;;;;5091546;28;20011;-74
2021/04/17 11:23:27;;;;;;;;;;;11.20;77.90;;;;;;5091302;28;19912;-74
2021/04/17 11:25:52;;;;;;;;;;;11.30;77.10;;;;;;5089955;28;19948;-73
2021/04/17 11:28:18;;;;;;;;;;;11.30;76.60;;;;;;5090999;28;19947;-75
2021/04/17 11:30:43;;;;;;;;;;;11.60;76.70;;;;;;5091328;28;20373;-73
2021/04/17 11:33:08;;;;;;;;;;;12.00;75.30;;;;;;5091182;28;19904;-73
2021/04/17 11:35:34;;;;;;;;;;;12.80;77.90;;;;;;5090839;28;20448;-74
2021/04/17 11:37:59;;;;;;;;;;;13.70;75.70;;;;;;5090983;28;19912;-73
2021/04/17 11:40:25;;;;;;;;;;;14.20;73.50;;;;;;5070921;28;20479;-73
2021/04/17 11:42:50;;;;;;;;;;;14.30;72.50;;;;;;5090680;28;19908;-74
2021/04/17 11:45:18;;;;;;;;;;;14.10;71.00;;;;;;5090883;28;19908;-73
2021/04/17 11:47:44;;;;;;;;;;;13.80;72.30;;;;;;5090190;28;19965;-74
2021/04/17 11:50:10;;;;;;;;;;;14.00;71.10;;;;;;5091273;28;19912;-77
2021/04/17 11:52:36;;;;;;;;;;;14.10;69.60;;;;;;5090892;28;19908;-74
2021/04/17 11:55:01;;;;;;;;;;;13.80;69.60;;;;;;5090994;28;19908;-74
2021/04/17 11:57:27;;;;;;;;;;;13.50;69.10;;;;;;5089467;28;19912;-74
2021/04/17 11:59:52;;;;;;;;;;;13.10;69.40;;;;;;5090807;28;19912;-76
2021/04/17 12:02:18;;;;;;;;;;;12.80;70.60;;;;;;5090919;28;19912;-74
2021/04/17 12:04:43;;;;;;;;;;;12.70;71.10;;;;;;5094658;28;19919;-74
2021/04/17 12:07:09;;;;;;;;;;;12.30;73.90;;;;;;5093933;28;19908;-75
2021/04/17 12:09:34;;;;;;;;;;;12.20;74.60;;;;;;5079947;28;20420;-74
2021/04/17 12:12:00;;;;;;;;;;;12.10;73.60;;;;;;5074028;28;20553;-75
2021/04/17 12:14:25;;;;;;;;;;;11.70;74.90;;;;;;5074619;28;19944;-74
2021/04/17 12:16:51;;;;;;;;;;;11.70;74.30;;;;;;5073047;28;19916;-75
2021/04/17 12:19:16;;;;;;;;;;;11.70;75.00;;;;;;5073962;28;20377;-74
2021/04/17 12:21:42;;;;;;;;;;;11.80;72.80;;;;;;5074550;28;19919;-74
2021/04/17 12:24:07;;;;;;;;;;;12.00;76.70;;;;;;5074418;28;20408;-75
2021/04/17 12:26:33;;;;;;;;;;;12.10;73.90;;;;;;5072821;28;19912;-75
2021/04/17 12:28:58;;;;;;;;;;;12.20;73.70;;;;;;5072436;28;19908;-74
2021/04/17 12:31:25;;;;;;;;;;;12.20;73.70;;;;;;5074208;28;19975;-74
2021/04/17 12:33:51;;;;;;;;;;;12.10;72.90;;;;;;5073958;28;19916;-74
2021/04/17 12:36:16;;;;;;;;;;;12.00;75.60;;;;;;5072848;28;20262;-74
2021/04/17 12:38:42;;;;;;;;;;;12.10;74.40;;;;;;5072585;28;19988;-74
2021/04/17 12:41:07;;;;;;;;;;;12.10;75.10;;;;;;5069043;28;20304;-75
2021/04/17 12:43:33;;;;;;;;;;;12.20;75.60;;;;;;5072656;28;19917;-75
2021/04/17 12:45:58;;;;;;;;;;;12.40;76.20;;;;;;5072098;28;20346;-74
2021/04/17 12:48:23;;;;;;;;;;;12.30;73.40;;;;;;5073165;28;19918;-75
2021/04/17 12:50:51;;;;;;;;;;;12.20;73.00;;;;;;5073917;28;20007;-74
2021/04/17 12:53:16;;;;;;;;;;;12.20;73.30;;;;;;5073716;28;20365;-74
2021/04/17 12:55:42;;;;;;;;;;;12.40;75.40;;;;;;5071325;28;19908;-74
2021/04/17 12:58:07;;;;;;;;;;;12.50;72.90;;;;;;5073171;28;19963;-73
2021/04/17 13:00:33;;;;;;;;;;;12.70;76.10;;;;;;5073589;28;19909;-74
2021/04/17 13:02:58;;;;;;;;;;;12.70;73.10;;;;;;5073421;28;19908;-74
2021/04/17 13:05:24;;;;;;;;;;;12.50;72.80;;;;;;5073350;28;19912;-75
2021/04/17 13:07:49;;;;;;;;;;;12.30;74.60;;;;;;5072331;28;19916;-73
2021/04/17 13:10:15;;;;;;;;;;;12.10;73.50;;;;;;5067266;28;19916;-74
2021/04/17 13:12:41;;;;;;;;;;;12.10;73.00;;;;;;5072732;28;19962;-74
2021/04/17 13:15:07;;;;;;;;;;;12.10;73.60;;;;;;5072848;28;19952;-74
2021/04/17 13:17:32;;;;;;;;;;;12.10;73.30;;;;;;5072176;28;19913;-73
2021/04/17 13:19:58;;;;;;;;;;;11.90;72.40;;;;;;5073197;28;19982;-77
2021/04/17 13:22:23;;;;;;;;;;;12.00;74.80;;;;;;5073180;28;20432;-74
2021/04/17 13:24:51;;;;;;;;;;;12.00;73.30;;;;;;5073340;28;19908;-74
2021/04/17 13:27:17;;;;;;;;;;;11.80;72.90;;;;;;5071544;28;19954;-74
2021/04/17 13:29:43;;;;;;;;;;;11.80;73.00;;;;;;5072912;28;19913;-74
2021/04/17 13:32:08;;;;;;;;;;;11.60;70.60;;;;;;5072956;28;20354;-73
2021/04/17 13:34:33;;;;;;;;;;;11.40;71.90;;;;;;5072955;28;19924;-73
2021/04/17 13:36:59;;;;;;;;;;;11.10;71.90;;;;;;5071695;28;20418;-73
2021/04/17 13:39:25;;;;;;;;;;;11.00;73.40;;;;;;5065941;28;19909;-74
2021/04/17 13:41:51;;;;;;;;;;;11.00;74.30;;;;;;5072031;28;19915;-74
2021/04/17 13:44:16;;;;;;;;;;;10.90;73.30;;;;;;5071133;28;20366;-73
2021/04/17 13:46:42;;;;;;;;;;;10.80;73.50;;;;;;5051441;28;19913;-73
2021/04/17 13:49:07;;;;;;;;;;;10.70;73.40;;;;;;5052693;28;19916;-74
2021/04/17 13:51:33;;;;;;;;;;;10.60;74.30;;;;;;5052724;28;19912;-74
2021/04/17 13:53:59;;;;;;;;;;;10.50;74.10;;;;;;5052499;28;19915;-73
2021/04/17 13:56:24;;;;;;;;;;;10.50;74.10;;;;;;5050826;28;19942;-73
2021/04/17 13:58:50;;;;;;;;;;;10.50;76.00;;;;;;5052649;28;19909;-73
2021/04/17 14:01:16;;;;;;;;;;;10.60;75.10;;;;;;5052550;28;19909;-75
2021/04/17 14:03:42;;;;;;;;;;;10.70;73.80;;;;;;5052588;28;19915;-73
2021/04/17 14:06:07;;;;;;;;;;;10.70;74.40;;;;;;5051168;28;19909;-74
2021/04/17 14:08:33;;;;;;;;;;;10.80;74.20;;;;;;5052321;28;19912;-73
2021/04/17 14:10:59;;;;;;;;;;;10.60;71.90;;;;;;5061600;28;19916;-73
2021/04/17 14:13:24;;;;;;;;;;;10.60;73.80;;;;;;5071783;28;19908;-73
2021/04/17 14:15:50;;;;;;;;;;;10.60;74.60;;;;;;5058029;28;19916;-73
2021/04/17 14:18:16;;;;;;;;;;;10.60;74.40;;;;;;5051902;28;19948;-74
2021/04/17 14:20:41;;;;;;;;;;;10.60;74.80;;;;;;5061030;28;20395;-73